Time,TemperatureF,DewpointF,PressureIn,WindDirection,WindDirectionDegrees,WindSpeedMPH,WindSpeedGustMPH,Humidity,HourlyPrecipIn,Conditions,Clouds,dailyrainin,SoftwareType,DateUTC
2013-05-30 00:02:00,76.1,69.8,28.12,North,0,9.0,25.0,81,0.00,,,0.00,meteohub,2013-05-30 05:02:00,
2013-05-30 00:07:00,75.7,69.4,28.12,ENE,68,11.0,25.0,81,0.00,,,0.00,meteohub,2013-05-30 05:07:00,
2013-05-30 00:12:00,75.7,69.8,28.12,NE,45,16.0,25.0,82,0.00,,,0.00,meteohub,2013-05-30 05:12:00,
2013-05-30 00:17:00,75.9,70.0,28.12,NE,45,12.0,17.0,82,0.00,,,0.00,meteohub,2013-05-30 05:17:00,
2013-05-30 00:22:00,76.1,69.8,28.12,SE,135,15.0,17.0,81,0.00,,,0.00,meteohub,2013-05-30 05:22:00,
2013-05-30 00:27:00,76.3,70.0,28.12,SE,135,21.0,21.0,81,0.00,,,0.00,meteohub,2013-05-30 05:27:00,
2013-05-30 00:32:00,76.3,70.0,28.11,East,90,14.0,21.0,81,0.00,,,0.00,meteohub,2013-05-30 05:32:00,
2013-05-30 00:37:00,76.3,70.0,28.11,East,90,17.0,21.0,81,0.00,,,0.00,meteohub,2013-05-30 05:37:00,
2013-05-30 00:42:00,75.9,70.0,28.12,East,90,11.0,21.0,82,0.00,,,0.00,meteohub,2013-05-30 05:42:00,
2013-05-30 00:47:00,75.9,70.0,28.13,SE,135,8.0,20.0,82,0.00,,,0.00,meteohub,2013-05-30 05:47:00,
2013-05-30 00:52:00,75.9,70.0,28.12,East,90,15.0,17.0,82,0.00,,,0.00,meteohub,2013-05-30 05:52:00,
2013-05-30 00:57:00,75.7,69.8,28.13,SE,135,9.0,16.0,82,0.00,,,0.00,meteohub,2013-05-30 05:57:00,
2013-05-30 01:02:00,75.7,69.8,28.13,SE,135,13.0,16.0,82,0.00,,,0.00,meteohub,2013-05-30 06:02:00,
2013-05-30 01:07:00,75.7,70.2,28.13,East,90,10.0,16.0,83,0.00,,,0.00,meteohub,2013-05-30 06:07:00,
2013-05-30 01:12:00,75.6,70.0,28.13,NE,45,11.0,16.0,83,0.00,,,0.00,meteohub,2013-05-30 06:12:00,
2013-05-30 01:17:00,75.7,70.2,28.13,South,180,15.0,15.0,83,0.00,,,0.00,meteohub,2013-05-30 06:17:00,
2013-05-30 01:22:00,75.6,70.0,28.12,SE,135,11.0,15.0,83,0.00,,,0.00,meteohub,2013-05-30 06:22:00,
2013-05-30 01:27:00,75.6,69.6,28.12,East,90,8.0,15.0,82,0.00,,,0.00,meteohub,2013-05-30 06:27:00,
2013-05-30 01:32:00,75.7,69.8,28.12,East,90,8.0,15.0,82,0.00,,,0.00,meteohub,2013-05-30 06:32:00,
2013-05-30 01:37:00,75.9,70.0,28.12,ESE,113,8.0,16.0,82,0.00,,,0.00,meteohub,2013-05-30 06:37:00,
2013-05-30 01:42:00,75.9,70.0,28.12,SE,135,10.0,16.0,82,0.00,,,0.00,meteohub,2013-05-30 06:42:00,
2013-05-30 01:47:00,75.9,69.6,28.12,East,90,6.0,16.0,81,0.00,,,0.00,meteohub,2013-05-30 06:47:00,
2013-05-30 01:52:00,75.7,69.4,28.12,NE,45,10.0,14.0,81,0.00,,,0.00,meteohub,2013-05-30 06:52:00,
2013-05-30 01:57:00,76.1,69.8,28.12,East,90,13.0,15.0,81,0.00,,,0.00,meteohub,2013-05-30 06:57:00,
2013-05-30 02:03:00,76.1,69.8,28.12,East,90,14.0,15.0,81,0.00,,,0.00,meteohub,2013-05-30 07:03:00,
2013-05-30 02:08:00,76.1,69.4,28.12,East,90,8.0,15.0,80,0.00,,,0.00,meteohub,2013-05-30 07:08:00,
2013-05-30 02:13:00,76.5,69.8,28.12,ESE,113,8.0,14.0,80,0.00,,,0.00,meteohub,2013-05-30 07:13:00,
2013-05-30 02:18:00,76.1,69.4,28.11,East,90,17.0,17.0,80,0.00,,,0.00,meteohub,2013-05-30 07:18:00,
2013-05-30 02:23:00,76.5,69.8,28.11,SE,135,14.0,17.0,80,0.00,,,0.00,meteohub,2013-05-30 07:23:00,
2013-05-30 02:28:00,76.1,69.4,28.11,SE,135,10.0,17.0,80,0.00,,,0.00,meteohub,2013-05-30 07:28:00,
2013-05-30 02:33:00,76.1,69.4,28.11,WSW,248,9.0,17.0,80,0.00,,,0.00,meteohub,2013-05-30 07:33:00,
2013-05-30 02:38:00,76.3,69.6,28.11,East,90,10.0,17.0,80,0.00,,,0.00,meteohub,2013-05-30 07:38:00,
2013-05-30 02:43:00,76.1,69.4,28.11,East,90,10.0,17.0,80,0.00,,,0.00,meteohub,2013-05-30 07:43:00,
2013-05-30 02:48:00,76.1,69.4,28.10,SE,135,13.0,15.0,80,0.00,,,0.00,meteohub,2013-05-30 07:48:00,
2013-05-30 02:53:00,75.7,69.4,28.10,NE,45,11.0,15.0,81,0.00,,,0.00,meteohub,2013-05-30 07:53:00,
2013-05-30 02:58:00,75.7,69.4,28.10,South,180,9.0,15.0,81,0.00,,,0.00,meteohub,2013-05-30 07:58:00,
2013-05-30 03:03:00,75.7,69.4,28.11,SE,135,10.0,15.0,81,0.00,,,0.00,meteohub,2013-05-30 08:03:00,
2013-05-30 03:08:00,75.6,69.3,28.09,SE,135,12.0,15.0,81,0.00,,,0.00,meteohub,2013-05-30 08:08:00,
2013-05-30 03:13:00,75.6,69.3,28.09,SE,135,9.0,15.0,81,0.00,,,0.00,meteohub,2013-05-30 08:13:00,
2013-05-30 03:18:00,75.7,69.4,28.09,SE,135,12.0,15.0,81,0.00,,,0.00,meteohub,2013-05-30 08:18:00,
2013-05-30 03:23:00,75.9,69.6,28.09,NE,45,16.0,18.0,81,0.00,,,0.00,meteohub,2013-05-30 08:23:00,
2013-05-30 03:28:00,76.1,69.8,28.09,East,90,14.0,18.0,81,0.00,,,0.00,meteohub,2013-05-30 08:28:00,
2013-05-30 03:33:00,75.9,69.6,28.09,South,180,8.0,18.0,81,0.00,,,0.00,meteohub,2013-05-30 08:33:00,
2013-05-30 03:38:00,75.7,69.4,28.09,East,90,8.0,19.0,81,0.00,,,0.00,meteohub,2013-05-30 08:38:00,
2013-05-30 03:43:00,75.9,69.6,28.09,South,180,12.0,19.0,81,0.00,,,0.00,meteohub,2013-05-30 08:43:00,
2013-05-30 03:48:00,75.7,69.4,28.10,SE,135,8.0,19.0,81,0.00,,,0.00,meteohub,2013-05-30 08:48:00,
2013-05-30 03:53:00,75.7,69.4,28.10,South,180,8.0,17.0,81,0.00,,,0.00,meteohub,2013-05-30 08:53:00,
2013-05-30 03:58:00,75.6,69.3,28.09,SE,135,8.0,17.0,81,0.00,,,0.00,meteohub,2013-05-30 08:58:00,
2013-05-30 04:03:00,75.6,69.3,28.09,SSE,158,7.0,13.0,81,0.00,,,0.00,meteohub,2013-05-30 09:03:00,
2013-05-30 04:08:00,75.6,69.6,28.09,SE,135,13.0,13.0,82,0.00,,,0.00,meteohub,2013-05-30 09:08:00,
2013-05-30 04:13:00,75.4,69.4,28.09,South,180,10.0,15.0,82,0.00,,,0.00,meteohub,2013-05-30 09:13:00,
2013-05-30 04:18:00,75.0,69.1,28.10,SE,135,8.0,15.0,82,0.00,,,0.00,meteohub,2013-05-30 09:18:00,
2013-05-30 04:23:00,75.4,69.8,28.09,SSE,158,10.0,15.0,83,0.00,,,0.00,meteohub,2013-05-30 09:23:00,
2013-05-30 04:28:00,75.0,69.4,28.10,South,180,9.0,15.0,83,0.00,,,0.00,meteohub,2013-05-30 09:28:00,
2013-05-30 04:33:00,75.0,69.4,28.10,SE,135,15.0,17.0,83,0.00,,,0.00,meteohub,2013-05-30 09:33:00,
2013-05-30 04:38:00,74.8,69.3,28.10,WNW,293,8.0,17.0,83,0.00,,,0.00,meteohub,2013-05-30 09:38:00,
2013-05-30 04:44:00,74.8,69.3,28.10,SE,135,10.0,17.0,83,0.00,,,0.00,meteohub,2013-05-30 09:44:00,
2013-05-30 04:49:00,74.8,69.6,28.11,SE,135,6.0,15.0,84,0.00,,,0.00,meteohub,2013-05-30 09:49:00,
2013-05-30 04:54:00,75.0,69.8,28.11,SW,225,9.0,14.0,84,0.00,,,0.00,meteohub,2013-05-30 09:54:00,
2013-05-30 04:59:00,74.8,69.6,28.11,SE,135,13.0,14.0,84,0.00,,,0.00,meteohub,2013-05-30 09:59:00,
2013-05-30 05:04:00,74.7,69.4,28.11,South,180,9.0,13.0,84,0.00,,,0.00,meteohub,2013-05-30 10:04:00,
2013-05-30 05:09:00,74.7,69.4,28.12,South,180,15.0,15.0,84,0.00,,,0.00,meteohub,2013-05-30 10:09:00,
2013-05-30 05:14:00,74.8,69.6,28.12,SE,135,11.0,16.0,84,0.00,,,0.00,meteohub,2013-05-30 10:14:00,
2013-05-30 05:19:00,74.7,69.4,28.12,South,180,16.0,16.0,84,0.00,,,0.00,meteohub,2013-05-30 10:19:00,
2013-05-30 05:24:00,74.7,69.4,28.12,SE,135,7.0,16.0,84,0.00,,,0.00,meteohub,2013-05-30 10:24:00,
2013-05-30 05:29:00,74.5,69.6,28.12,SE,135,8.0,16.0,85,0.00,,,0.00,meteohub,2013-05-30 10:29:00,
2013-05-30 05:34:00,74.7,69.8,28.12,SSE,158,9.0,16.0,85,0.00,,,0.00,meteohub,2013-05-30 10:34:00,
2013-05-30 05:39:00,74.8,70.0,28.12,South,180,11.0,13.0,85,0.00,,,0.00,meteohub,2013-05-30 10:39:00,
2013-05-30 05:44:00,74.8,69.6,28.13,SW,225,10.0,13.0,84,0.00,,,0.00,meteohub,2013-05-30 10:44:00,
2013-05-30 05:49:00,74.8,69.6,28.13,South,180,21.0,21.0,84,0.00,,,0.00,meteohub,2013-05-30 10:49:00,
2013-05-30 05:54:00,75.4,70.2,28.13,SE,135,14.0,21.0,84,0.00,,,0.00,meteohub,2013-05-30 10:54:00,
2013-05-30 05:59:00,74.8,69.6,28.13,ESE,113,8.0,21.0,84,0.00,,,0.00,meteohub,2013-05-30 10:59:00,
2013-05-30 06:04:00,75.0,69.8,28.13,East,90,10.0,21.0,84,0.00,,,0.00,meteohub,2013-05-30 11:04:00,
2013-05-30 06:09:00,74.8,69.6,28.12,SW,225,9.0,18.0,84,0.00,,,0.00,meteohub,2013-05-30 11:09:00,
2013-05-30 06:14:00,75.0,69.8,28.12,SE,135,8.0,18.0,84,0.00,,,0.00,meteohub,2013-05-30 11:14:00,
2013-05-30 06:19:00,74.7,69.4,28.12,SW,225,8.0,18.0,84,0.00,,,0.00,meteohub,2013-05-30 11:19:00,
2013-05-30 06:24:00,74.7,69.4,28.12,East,90,11.0,17.0,84,0.00,,,0.00,meteohub,2013-05-30 11:24:00,
2013-05-30 06:29:00,74.7,69.4,28.12,East,90,10.0,17.0,84,0.00,,,0.00,meteohub,2013-05-30 11:29:00,
2013-05-30 06:34:00,74.7,69.4,28.14,SW,225,7.0,16.0,84,0.00,,,0.00,meteohub,2013-05-30 11:34:00,
2013-05-30 06:39:00,74.8,69.6,28.14,East,90,10.0,16.0,84,0.00,,,0.00,meteohub,2013-05-30 11:39:00,
2013-05-30 06:44:00,74.5,69.3,28.14,SE,135,5.0,14.0,84,0.00,,,0.00,meteohub,2013-05-30 11:44:00,
2013-05-30 06:49:00,74.7,69.4,28.14,South,180,7.0,15.0,84,0.00,,,0.00,meteohub,2013-05-30 11:49:00,
2013-05-30 06:54:00,74.5,69.3,28.14,South,180,6.0,15.0,84,0.00,,,0.00,meteohub,2013-05-30 11:54:00,
2013-05-30 06:59:00,74.7,69.8,28.15,SW,225,6.0,19.0,85,0.00,,,0.00,meteohub,2013-05-30 11:59:00,
2013-05-30 07:04:00,74.8,69.6,28.15,South,180,8.0,19.0,84,0.00,,,0.00,meteohub,2013-05-30 12:04:00,
2013-05-30 07:09:00,75.0,69.8,28.16,South,180,9.0,14.0,84,0.00,,,0.00,meteohub,2013-05-30 12:09:00,
2013-05-30 07:14:00,75.4,69.8,28.16,SE,135,15.0,16.0,83,0.00,,,0.00,meteohub,2013-05-30 12:14:00,
2013-05-30 07:19:00,75.6,69.6,28.16,South,180,15.0,17.0,82,0.00,,,0.00,meteohub,2013-05-30 12:19:00,
2013-05-30 07:24:00,75.9,69.6,28.17,South,180,11.0,17.0,81,0.00,,,0.00,meteohub,2013-05-30 12:24:00,
2013-05-30 07:29:00,76.1,69.8,28.17,South,180,11.0,17.0,81,0.00,,,0.00,meteohub,2013-05-30 12:29:00,
2013-05-30 07:34:00,76.5,69.8,28.17,SE,135,14.0,17.0,80,0.00,,,0.00,meteohub,2013-05-30 12:34:00,
2013-05-30 07:39:00,76.5,69.8,28.18,SE,135,13.0,17.0,80,0.00,,,0.00,meteohub,2013-05-30 12:39:00,
2013-05-30 07:44:00,76.5,69.8,28.18,South,180,12.0,21.0,80,0.00,,,0.00,meteohub,2013-05-30 12:44:00,
2013-05-30 07:49:00,76.6,70.0,28.18,SW,225,10.0,21.0,80,0.00,,,0.00,meteohub,2013-05-30 12:49:00,
2013-05-30 07:54:00,76.8,69.8,28.19,South,180,11.0,21.0,79,0.00,,,0.00,meteohub,2013-05-30 12:54:00,
2013-05-30 07:59:00,77.2,70.2,28.19,SSE,158,14.0,16.0,79,0.00,,,0.00,meteohub,2013-05-30 12:59:00,
2013-05-30 08:04:00,77.5,70.2,28.19,SSW,203,14.0,17.0,78,0.00,,,0.00,meteohub,2013-05-30 13:04:00,
2013-05-30 08:09:00,78.1,70.3,28.19,South,180,15.0,17.0,77,0.00,,,0.00,meteohub,2013-05-30 13:09:00,
2013-05-30 08:14:00,77.9,70.2,28.19,South,180,11.0,17.0,77,0.00,,,0.00,meteohub,2013-05-30 13:14:00,
2013-05-30 08:19:00,78.1,70.3,28.19,South,180,21.0,21.0,77,0.00,,,0.00,meteohub,2013-05-30 13:19:00,
2013-05-30 08:25:00,78.4,70.2,28.19,South,180,17.0,23.0,76,0.00,,,0.00,meteohub,2013-05-30 13:25:00,
2013-05-30 08:30:00,78.4,70.2,28.19,South,180,19.0,23.0,76,0.00,,,0.00,meteohub,2013-05-30 13:30:00,
2013-05-30 08:35:00,78.6,70.3,28.19,South,180,22.0,23.0,76,0.00,,,0.00,meteohub,2013-05-30 13:35:00,
2013-05-30 08:40:00,79.0,70.3,28.19,South,180,24.0,24.0,75,0.00,,,0.00,meteohub,2013-05-30 13:40:00,
2013-05-30 08:45:00,79.2,70.9,28.19,South,180,12.0,22.0,76,0.00,,,0.00,meteohub,2013-05-30 13:45:00,
2013-05-30 08:50:00,79.2,70.5,28.19,South,180,18.0,24.0,75,0.00,,,0.00,meteohub,2013-05-30 13:50:00,
2013-05-30 08:55:00,79.9,70.9,28.20,South,180,20.0,24.0,74,0.00,,,0.00,meteohub,2013-05-30 13:55:00,
2013-05-30 09:00:00,80.2,71.2,28.20,SW,225,16.0,21.0,74,0.00,,,0.00,meteohub,2013-05-30 14:00:00,
2013-05-30 09:05:00,80.2,71.2,28.19,SW,225,15.0,21.0,74,0.00,,,0.00,meteohub,2013-05-30 14:05:00,
2013-05-30 09:10:00,80.6,71.1,28.19,South,180,11.0,21.0,73,0.00,,,0.00,meteohub,2013-05-30 14:10:00,
2013-05-30 09:15:00,81.0,71.1,28.20,SW,225,13.0,21.0,72,0.00,,,0.00,meteohub,2013-05-30 14:15:00,
2013-05-30 09:20:00,81.5,71.2,28.20,SW,225,16.0,17.0,71,0.00,,,0.00,meteohub,2013-05-30 14:20:00,
2013-05-30 09:25:00,82.0,71.2,28.19,South,180,14.0,17.0,70,0.00,,,0.00,meteohub,2013-05-30 14:25:00,
2013-05-30 09:30:00,81.9,71.1,28.19,South,180,12.0,20.0,70,0.00,,,0.00,meteohub,2013-05-30 14:30:00,
2013-05-30 09:35:00,82.4,70.7,28.20,SW,225,15.0,21.0,68,0.00,,,0.00,meteohub,2013-05-30 14:35:00,
2013-05-30 09:40:00,82.2,71.1,28.20,South,180,17.0,21.0,69,0.00,,,0.00,meteohub,2013-05-30 14:40:00,
2013-05-30 09:45:00,82.4,70.7,28.19,SW,225,14.0,21.0,68,0.00,,,0.00,meteohub,2013-05-30 14:45:00,
2013-05-30 09:50:00,82.6,70.9,28.19,South,180,9.0,18.0,68,0.00,,,0.00,meteohub,2013-05-30 14:50:00,
2013-05-30 09:55:00,82.6,70.9,28.19,South,180,12.0,18.0,68,0.00,,,0.00,meteohub,2013-05-30 14:55:00,
2013-05-30 10:00:00,83.7,70.7,28.20,SW,225,17.0,19.0,65,0.00,,,0.00,meteohub,2013-05-30 15:00:00,
2013-05-30 10:05:00,84.4,70.3,28.19,NW,315,21.0,21.0,63,0.00,,,0.00,meteohub,2013-05-30 15:05:00,
2013-05-30 10:10:00,85.1,70.5,28.19,South,180,11.0,21.0,62,0.00,,,0.00,meteohub,2013-05-30 15:10:00,
2013-05-30 10:15:00,86.2,70.2,28.19,NW,315,17.0,21.0,59,0.00,,,0.00,meteohub,2013-05-30 15:15:00,
2013-05-30 10:20:00,86.4,70.3,28.19,West,270,13.0,24.0,59,0.00,,,0.00,meteohub,2013-05-30 15:20:00,
2013-05-30 10:25:00,86.4,69.3,28.19,SW,225,15.0,24.0,57,0.00,,,0.00,meteohub,2013-05-30 15:25:00,
2013-05-30 10:30:00,86.0,68.5,28.19,SW,225,12.0,24.0,56,0.00,,,0.00,meteohub,2013-05-30 15:30:00,
2013-05-30 10:35:00,86.5,68.9,28.19,SE,135,11.0,19.0,56,0.00,,,0.00,meteohub,2013-05-30 15:35:00,
2013-05-30 10:40:00,86.9,66.0,28.19,SW,225,23.0,23.0,50,0.00,,,0.00,meteohub,2013-05-30 15:40:00,
2013-05-30 10:45:00,86.2,64.8,28.19,West,270,12.0,23.0,49,0.00,,,0.00,meteohub,2013-05-30 15:45:00,
2013-05-30 10:50:00,86.5,65.1,28.19,West,270,20.0,23.0,49,0.00,,,0.00,meteohub,2013-05-30 15:50:00,
2013-05-30 10:55:00,87.3,66.4,28.19,West,270,8.0,23.0,50,0.00,,,0.00,meteohub,2013-05-30 15:55:00,
2013-05-30 11:00:00,87.1,64.4,28.18,NNW,338,15.0,20.0,47,0.00,,,0.00,meteohub,2013-05-30 16:00:00,
2013-05-30 11:05:00,87.4,64.0,28.19,South,180,13.0,20.0,46,0.00,,,0.00,meteohub,2013-05-30 16:05:00,
2013-05-30 11:10:00,87.4,63.5,28.19,NW,315,13.0,21.0,45,0.00,,,0.00,meteohub,2013-05-30 16:10:00,
2013-05-30 11:15:00,87.8,63.9,28.19,West,270,12.0,21.0,45,0.00,,,0.00,meteohub,2013-05-30 16:15:00,
2013-05-30 11:20:00,88.2,63.5,28.19,WSW,248,12.0,20.0,44,0.00,,,0.00,meteohub,2013-05-30 16:20:00,
2013-05-30 11:25:00,88.0,62.6,28.19,NW,315,17.0,20.0,43,0.00,,,0.00,meteohub,2013-05-30 16:25:00,
2013-05-30 11:30:00,87.4,62.8,28.19,NW,315,14.0,17.0,44,0.00,,,0.00,meteohub,2013-05-30 16:30:00,
2013-05-30 11:35:00,87.4,62.2,28.19,SW,225,12.0,17.0,43,0.00,,,0.00,meteohub,2013-05-30 16:35:00,
2013-05-30 11:40:00,87.3,62.1,28.19,NW,315,8.0,17.0,43,0.00,,,0.00,meteohub,2013-05-30 16:40:00,
2013-05-30 11:45:00,87.6,61.0,28.20,West,270,12.0,17.0,41,0.00,,,0.00,meteohub,2013-05-30 16:45:00,
2013-05-30 11:50:00,88.0,60.6,28.20,NNW,338,12.0,17.0,40,0.00,,,0.00,meteohub,2013-05-30 16:50:00,
2013-05-30 11:55:00,88.5,61.2,28.19,West,270,11.0,19.0,40,0.00,,,0.00,meteohub,2013-05-30 16:55:00,
2013-05-30 12:00:00,88.9,61.5,28.19,NW,315,12.0,19.0,40,0.00,,,0.00,meteohub,2013-05-30 17:00:00,
2013-05-30 12:05:00,88.9,60.8,28.19,West,270,11.0,19.0,39,0.00,,,0.00,meteohub,2013-05-30 17:05:00,
2013-05-30 12:10:00,88.9,60.8,28.19,WNW,293,11.0,16.0,39,0.00,,,0.00,meteohub,2013-05-30 17:10:00,
2013-05-30 12:15:00,89.1,60.1,28.19,WNW,293,14.0,16.0,38,0.00,,,0.00,meteohub,2013-05-30 17:15:00,
2013-05-30 12:21:00,88.9,60.8,28.19,SW,225,11.0,16.0,39,0.00,,,0.00,meteohub,2013-05-30 17:21:00,
2013-05-30 12:26:00,89.4,61.2,28.19,SW,225,11.0,16.0,39,0.00,,,0.00,meteohub,2013-05-30 17:26:00,
2013-05-30 12:30:00,90.0,61.7,28.19,SW,225,14.0,16.0,39,0.00,,,0.00,meteohub,2013-05-30 17:30:00,
2013-05-30 12:35:00,90.0,61.7,28.19,SW,225,15.0,15.0,39,0.00,,,0.00,meteohub,2013-05-30 17:35:00,
2013-05-30 12:41:00,90.0,62.4,28.19,West,270,7.0,15.0,40,0.00,,,0.00,meteohub,2013-05-30 17:41:00,
2013-05-30 12:46:00,90.1,61.9,28.19,NW,315,16.0,18.0,39,0.00,,,0.00,meteohub,2013-05-30 17:46:00,
2013-05-30 12:51:00,90.0,62.4,28.19,SW,225,11.0,18.0,40,0.00,,,0.00,meteohub,2013-05-30 17:51:00,
2013-05-30 12:56:00,90.9,61.0,28.18,SW,225,12.0,18.0,37,0.00,,,0.00,meteohub,2013-05-30 17:56:00,
2013-05-30 13:01:00,91.0,60.4,28.18,West,270,17.0,21.0,36,0.00,,,0.00,meteohub,2013-05-30 18:01:00,
2013-05-30 13:06:00,90.7,59.2,28.18,NNW,338,11.0,21.0,35,0.00,,,0.00,meteohub,2013-05-30 18:06:00,
2013-05-30 13:11:00,91.2,58.1,28.18,NW,315,15.0,21.0,33,0.00,,,0.00,meteohub,2013-05-30 18:11:00,
2013-05-30 13:16:00,91.4,57.4,28.18,SSW,203,11.0,20.0,32,0.00,,,0.00,meteohub,2013-05-30 18:16:00,
2013-05-30 13:21:00,92.1,57.2,28.18,WNW,293,10.0,20.0,31,0.00,,,0.00,meteohub,2013-05-30 18:21:00,
2013-05-30 13:26:00,92.8,50.7,28.17,SW,225,17.0,20.0,24,0.00,,,0.00,meteohub,2013-05-30 18:26:00,
2013-05-30 13:31:00,92.7,52.7,28.17,West,270,13.0,17.0,26,0.00,,,0.00,meteohub,2013-05-30 18:31:00,
2013-05-30 13:36:00,93.0,47.3,28.17,SW,225,11.0,17.0,21,0.00,,,0.00,meteohub,2013-05-30 18:36:00,
2013-05-30 13:41:00,93.7,50.4,28.17,North,0,10.0,17.0,23,0.00,,,0.00,meteohub,2013-05-30 18:41:00,
2013-05-30 13:46:00,93.6,50.2,28.17,NW,315,17.0,17.0,23,0.00,,,0.00,meteohub,2013-05-30 18:46:00,
2013-05-30 13:51:00,94.3,53.1,28.17,SW,225,9.0,19.0,25,0.00,,,0.00,meteohub,2013-05-30 18:51:00,
2013-05-30 13:56:00,94.3,52.0,28.16,West,270,11.0,19.0,24,0.00,,,0.00,meteohub,2013-05-30 18:56:00,
2013-05-30 14:01:00,95.0,41.7,28.17,WNW,293,17.0,17.0,16,0.00,,,0.00,meteohub,2013-05-30 19:01:00,
2013-05-30 14:06:00,94.6,47.3,28.16,SW,225,16.0,23.0,20,0.00,,,0.00,meteohub,2013-05-30 19:06:00,
2013-05-30 14:11:00,94.8,44.8,28.16,SW,225,23.0,23.0,18,0.00,,,0.00,meteohub,2013-05-30 19:11:00,
2013-05-30 14:16:00,94.6,46.0,28.16,West,270,17.0,23.0,19,0.00,,,0.00,meteohub,2013-05-30 19:16:00,
2013-05-30 14:21:00,94.3,41.2,28.16,West,270,11.0,23.0,16,0.00,,,0.00,meteohub,2013-05-30 19:21:00,
2013-05-30 14:26:00,94.8,38.1,28.16,WSW,248,13.0,23.0,14,0.00,,,0.00,meteohub,2013-05-30 19:26:00,
2013-05-30 14:31:00,94.8,36.3,28.15,West,270,7.0,18.0,13,0.00,,,0.00,meteohub,2013-05-30 19:31:00,
2013-05-30 14:36:00,95.9,95.9,28.14,West,270,20.0,22.0,0,0.00,,,0.00,meteohub,2013-05-30 19:36:00,
2013-05-30 14:41:00,95.7,95.7,28.15,West,270,17.0,22.0,0,0.00,,,0.00,meteohub,2013-05-30 19:41:00,
2013-05-30 14:46:00,95.5,95.5,28.15,West,270,26.0,26.0,0,0.00,,,0.00,meteohub,2013-05-30 19:46:00,
2013-05-30 14:51:00,95.7,95.7,28.15,West,270,14.0,26.0,0,0.00,,,0.00,meteohub,2013-05-30 19:51:00,
2013-05-30 14:56:00,96.3,96.3,28.14,NW,315,15.0,26.0,0,0.00,,,0.00,meteohub,2013-05-30 19:56:00,
2013-05-30 15:01:00,96.4,96.4,28.14,NW,315,21.0,27.0,0,0.00,,,0.00,meteohub,2013-05-30 20:01:00,
2013-05-30 15:06:00,96.6,96.6,28.14,North,0,15.0,27.0,0,0.00,,,0.00,meteohub,2013-05-30 20:06:00,
2013-05-30 15:11:00,96.6,96.6,28.14,West,270,10.0,27.0,0,0.00,,,0.00,meteohub,2013-05-30 20:11:00,
2013-05-30 15:16:00,97.3,97.3,28.14,NW,315,25.0,25.0,0,0.00,,,0.00,meteohub,2013-05-30 20:16:00,
2013-05-30 15:21:00,96.6,96.6,28.14,SW,225,16.0,25.0,0,0.00,,,0.00,meteohub,2013-05-30 20:21:00,
2013-05-30 15:26:00,97.0,97.0,28.14,SW,225,11.0,25.0,0,0.00,,,0.00,meteohub,2013-05-30 20:26:00,
2013-05-30 15:31:00,97.2,97.2,28.14,SW,225,15.0,25.0,0,0.00,,,0.00,meteohub,2013-05-30 20:31:00,
2013-05-30 15:36:00,97.3,97.3,28.13,West,270,20.0,22.0,0,0.00,,,0.00,meteohub,2013-05-30 20:36:00,
2013-05-30 15:41:00,97.0,97.0,28.13,NW,315,16.0,24.0,0,0.00,,,0.00,meteohub,2013-05-30 20:41:00,
2013-05-30 15:46:00,97.7,97.7,28.13,West,270,16.0,24.0,0,0.00,,,0.00,meteohub,2013-05-30 20:46:00,
2013-05-30 15:52:00,97.2,97.2,28.12,West,270,12.0,24.0,0,0.00,,,0.00,meteohub,2013-05-30 20:52:00,
2013-05-30 15:57:00,97.3,97.3,28.12,West,270,15.0,17.0,0,0.00,,,0.00,meteohub,2013-05-30 20:57:00,
2013-05-30 16:02:00,97.7,97.7,28.13,WNW,293,17.0,18.0,0,0.00,,,0.00,meteohub,2013-05-30 21:02:00,
2013-05-30 16:07:00,97.7,97.7,28.12,SW,225,9.0,21.0,0,0.00,,,0.00,meteohub,2013-05-30 21:07:00,
2013-05-30 16:12:00,97.5,97.5,28.12,West,270,16.0,21.0,0,0.00,,,0.00,meteohub,2013-05-30 21:12:00,
2013-05-30 16:17:00,97.3,97.3,28.11,West,270,10.0,21.0,0,0.00,,,0.00,meteohub,2013-05-30 21:17:00,
2013-05-30 16:22:00,97.9,97.9,28.11,West,270,19.0,19.0,0,0.00,,,0.00,meteohub,2013-05-30 21:22:00,
2013-05-30 16:27:00,98.4,98.4,28.11,SW,225,11.0,19.0,0,0.00,,,0.00,meteohub,2013-05-30 21:27:00,
2013-05-30 16:32:00,98.8,98.8,28.11,SW,225,7.0,19.0,0,0.00,,,0.00,meteohub,2013-05-30 21:32:00,
2013-05-30 16:37:00,98.6,98.6,28.11,NW,315,13.0,19.0,0,0.00,,,0.00,meteohub,2013-05-30 21:37:00,
2013-05-30 16:42:00,98.6,98.6,28.11,West,270,4.0,15.0,0,0.00,,,0.00,meteohub,2013-05-30 21:42:00,
2013-05-30 16:47:00,98.8,98.8,28.11,West,270,13.0,15.0,0,0.00,,,0.00,meteohub,2013-05-30 21:47:00,
2013-05-30 16:52:00,98.4,98.4,28.11,West,270,21.0,21.0,0,0.00,,,0.00,meteohub,2013-05-30 21:52:00,
2013-05-30 16:57:00,97.7,97.7,28.11,North,0,10.0,21.0,0,0.00,,,0.00,meteohub,2013-05-30 21:57:00,
2013-05-30 17:02:00,98.6,98.6,28.10,SW,225,10.0,21.0,0,0.00,,,0.00,meteohub,2013-05-30 22:02:00,
2013-05-30 17:07:00,98.4,98.4,28.10,NW,315,17.0,21.0,0,0.00,,,0.00,meteohub,2013-05-30 22:07:00,
2013-05-30 17:12:00,98.4,98.4,28.10,SE,135,11.0,17.0,0,0.00,,,0.00,meteohub,2013-05-30 22:12:00,
2013-05-30 17:17:00,98.6,98.6,28.10,West,270,1.0,17.0,0,0.00,,,0.00,meteohub,2013-05-30 22:17:00,
2013-05-30 17:22:00,98.8,98.8,28.09,North,0,8.0,17.0,0,0.00,,,0.00,meteohub,2013-05-30 22:22:00,
2013-05-30 17:27:00,98.8,98.8,28.09,SE,135,3.0,15.0,0,0.00,,,0.00,meteohub,2013-05-30 22:27:00,
2013-05-30 17:32:00,99.1,99.1,28.09,West,270,4.0,11.0,0,0.00,,,0.00,meteohub,2013-05-30 22:32:00,
2013-05-30 17:37:00,99.7,99.7,28.09,SW,225,5.0,10.0,0,0.00,,,0.00,meteohub,2013-05-30 22:37:00,
2013-05-30 17:42:00,99.3,99.3,28.09,NW,315,14.0,17.0,0,0.00,,,0.00,meteohub,2013-05-30 22:42:00,
2013-05-30 17:47:00,99.0,99.0,28.09,SW,225,16.0,21.0,0,0.00,,,0.00,meteohub,2013-05-30 22:47:00,
2013-05-30 17:52:00,99.1,99.1,28.08,South,180,13.0,21.0,0,0.00,,,0.00,meteohub,2013-05-30 22:52:00,
2013-05-30 17:57:00,99.3,99.3,28.08,NW,315,7.0,21.0,0,0.00,,,0.00,meteohub,2013-05-30 22:57:00,
2013-05-30 18:02:00,99.7,99.7,28.08,SW,225,8.0,17.0,0,0.00,,,0.00,meteohub,2013-05-30 23:02:00,
2013-05-30 18:07:00,99.5,99.5,28.08,West,270,8.0,13.0,0,0.00,,,0.00,meteohub,2013-05-30 23:07:00,
2013-05-30 18:12:00,99.5,99.5,28.08,SW,225,9.0,9.0,0,0.00,,,0.00,meteohub,2013-05-30 23:12:00,
2013-05-30 18:17:00,99.7,99.7,28.08,SW,225,6.0,15.0,0,0.00,,,0.00,meteohub,2013-05-30 23:17:00,
2013-05-30 18:22:00,100.0,99.9,28.08,SW,225,7.0,15.0,0,0.00,,,0.00,meteohub,2013-05-30 23:22:00,
2013-05-30 18:27:00,100.4,99.9,28.08,SW,225,5.0,15.0,0,0.00,,,0.00,meteohub,2013-05-30 23:27:00,
2013-05-30 18:32:00,100.2,99.9,28.08,South,180,6.0,8.0,0,0.00,,,0.00,meteohub,2013-05-30 23:32:00,
2013-05-30 18:37:00,100.4,99.9,28.07,South,180,3.0,8.0,0,0.00,,,0.00,meteohub,2013-05-30 23:37:00,
2013-05-30 18:42:00,100.2,99.9,28.07,SW,225,6.0,8.0,0,0.00,,,0.00,meteohub,2013-05-30 23:42:00,
2013-05-30 18:47:00,100.0,99.9,28.08,South,180,11.0,11.0,0,0.00,,,0.00,meteohub,2013-05-30 23:47:00,
2013-05-30 18:52:00,100.2,99.9,28.08,SE,135,5.0,11.0,0,0.00,,,0.00,meteohub,2013-05-30 23:52:00,
2013-05-30 18:57:00,100.0,99.9,28.08,SW,225,10.0,12.0,0,0.00,,,0.00,meteohub,2013-05-30 23:57:00,
2013-05-30 19:02:00,99.9,99.9,28.08,NW,315,12.0,15.0,0,0.00,,,0.00,meteohub,2013-05-31 00:02:00,
2013-05-30 19:07:00,99.7,99.7,28.08,SW,225,11.0,17.0,0,0.00,,,0.00,meteohub,2013-05-31 00:07:00,
2013-05-30 19:12:00,99.7,99.7,28.08,South,180,8.0,17.0,0,0.00,,,0.00,meteohub,2013-05-31 00:12:00,
2013-05-30 19:17:00,99.7,99.7,28.08,NW,315,16.0,17.0,0,0.00,,,0.00,meteohub,2013-05-31 00:17:00,
2013-05-30 19:22:00,99.3,99.3,28.08,West,270,11.0,16.0,0,0.00,,,0.00,meteohub,2013-05-31 00:22:00,
2013-05-30 19:27:00,99.5,99.5,28.08,SW,225,8.0,16.0,0,0.00,,,0.00,meteohub,2013-05-31 00:27:00,
2013-05-30 19:32:00,98.8,98.8,28.09,NW,315,7.0,16.0,0,0.00,,,0.00,meteohub,2013-05-31 00:32:00,
2013-05-30 19:37:00,98.6,98.6,28.08,South,180,8.0,12.0,0,0.00,,,0.00,meteohub,2013-05-31 00:37:00,
2013-05-30 19:42:00,98.2,98.2,28.09,SSW,203,5.0,14.0,0,0.00,,,0.00,meteohub,2013-05-31 00:42:00,
2013-05-30 19:47:00,98.1,98.1,28.09,SW,225,4.0,14.0,0,0.00,,,0.00,meteohub,2013-05-31 00:47:00,
2013-05-30 19:52:00,97.9,97.9,28.09,SW,225,3.0,13.0,0,0.00,,,0.00,meteohub,2013-05-31 00:52:00,
2013-05-30 19:57:00,97.7,97.7,28.09,South,180,6.0,11.0,0,0.00,,,0.00,meteohub,2013-05-31 00:57:00,
2013-05-30 20:02:00,97.2,97.2,28.09,SW,225,8.0,8.0,0,0.00,,,0.00,meteohub,2013-05-31 01:02:00,
2013-05-30 20:07:00,96.4,96.4,28.09,SW,225,8.0,9.0,0,0.00,,,0.00,meteohub,2013-05-31 01:07:00,
2013-05-30 20:12:00,96.3,96.3,28.09,SW,225,4.0,9.0,0,0.00,,,0.00,meteohub,2013-05-31 01:12:00,
2013-05-30 20:17:00,95.7,95.7,28.09,SW,225,4.0,8.0,0,0.00,,,0.00,meteohub,2013-05-31 01:17:00,
2013-05-30 20:22:00,95.2,95.2,28.09,South,180,2.0,8.0,0,0.00,,,0.00,meteohub,2013-05-31 01:22:00,
2013-05-30 20:27:00,94.1,94.1,28.09,SW,225,0.0,7.0,0,0.00,,,0.00,meteohub,2013-05-31 01:27:00,
2013-05-30 20:32:00,93.2,93.2,28.10,South,180,1.0,4.0,0,0.00,,,0.00,meteohub,2013-05-31 01:32:00,
2013-05-30 20:33:00,92.7,92.7,28.10,SW,225,1.0,4.0,0,0.00,,,0.00,meteohub,2013-05-31 01:33:00,
2013-05-30 20:37:00,91.9,91.9,28.10,South,180,1.0,3.0,0,0.00,,,0.00,meteohub,2013-05-31 01:37:00,
2013-05-30 20:42:00,91.2,91.2,28.10,South,180,0.0,1.0,0,0.00,,,0.00,meteohub,2013-05-31 01:42:00,
2013-05-30 20:47:00,90.3,90.3,28.10,South,180,0.0,1.0,0,0.00,,,0.00,meteohub,2013-05-31 01:47:00,
2013-05-30 20:52:00,90.0,90.0,28.10,NE,45,1.0,1.0,0,0.00,,,0.00,meteohub,2013-05-31 01:52:00,
2013-05-30 20:57:00,89.2,89.2,28.10,South,180,0.0,1.0,0,0.00,,,0.00,meteohub,2013-05-31 01:57:00,
2013-05-30 21:02:00,88.7,88.7,28.11,South,180,1.0,1.0,0,0.00,,,0.00,meteohub,2013-05-31 02:02:00,
2013-05-30 21:07:00,88.2,88.2,28.11,East,90,1.0,2.0,0,0.00,,,0.00,meteohub,2013-05-31 02:07:00,
2013-05-30 21:12:00,88.0,88.0,28.11,SW,225,4.0,4.0,0,0.00,,,0.00,meteohub,2013-05-31 02:12:00,
2013-05-30 21:17:00,88.2,88.2,28.11,SE,135,2.0,4.0,0,0.00,,,0.00,meteohub,2013-05-31 02:17:00,
2013-05-30 21:22:00,87.8,87.8,28.11,SE,135,1.0,4.0,0,0.00,,,0.00,meteohub,2013-05-31 02:22:00,
2013-05-30 21:27:00,87.4,87.4,28.11,South,180,1.0,4.0,0,0.00,,,0.00,meteohub,2013-05-31 02:27:00,
2013-05-30 21:32:00,87.4,87.4,28.11,South,180,1.0,3.0,0,0.00,,,0.00,meteohub,2013-05-31 02:32:00,
2013-05-30 21:37:00,86.7,86.7,28.11,East,90,1.0,3.0,0,0.00,,,0.00,meteohub,2013-05-31 02:37:00,
2013-05-30 21:42:00,86.4,86.4,28.12,SE,135,1.0,3.0,0,0.00,,,0.00,meteohub,2013-05-31 02:42:00,
2013-05-30 21:47:00,86.0,25.3,28.12,East,90,1.0,4.0,11,0.00,,,0.00,meteohub,2013-05-31 02:47:00,
2013-05-30 21:52:00,86.0,27.5,28.12,East,90,0.0,4.0,12,0.00,,,0.00,meteohub,2013-05-31 02:52:00,
2013-05-30 21:57:00,85.8,44.8,28.12,East,90,2.0,4.0,24,0.00,,,0.00,meteohub,2013-05-31 02:57:00,
2013-05-30 22:02:00,83.7,60.1,28.12,East,90,4.0,6.0,45,0.00,,,0.00,meteohub,2013-05-31 03:02:00,
2013-05-30 22:07:00,81.3,65.1,28.12,NE,45,8.0,8.0,58,0.00,,,0.00,meteohub,2013-05-31 03:07:00,
2013-05-30 22:12:00,79.9,65.7,28.13,South,180,4.0,12.0,62,0.00,,,0.00,meteohub,2013-05-31 03:12:00,
2013-05-30 22:17:00,79.0,66.6,28.13,East,90,7.0,12.0,66,0.00,,,0.00,meteohub,2013-05-31 03:17:00,
2013-05-30 22:22:00,78.3,66.7,28.13,East,90,1.0,12.0,68,0.00,,,0.00,meteohub,2013-05-31 03:22:00,
2013-05-30 22:27:00,77.9,67.3,28.13,East,90,1.0,7.0,70,0.00,,,0.00,meteohub,2013-05-31 03:27:00,
2013-05-30 22:32:00,77.4,66.7,28.14,NE,45,5.0,7.0,70,0.00,,,0.00,meteohub,2013-05-31 03:32:00,
2013-05-30 22:37:00,77.7,66.7,28.13,East,90,2.0,6.0,69,0.00,,,0.00,meteohub,2013-05-31 03:37:00,
2013-05-30 22:42:00,77.9,66.0,28.14,SE,135,8.0,9.0,67,0.00,,,0.00,meteohub,2013-05-31 03:42:00,
2013-05-30 22:47:00,78.3,63.7,28.14,South,180,11.0,11.0,61,0.00,,,0.00,meteohub,2013-05-31 03:47:00,
2013-05-30 22:52:00,79.0,63.0,28.14,East,90,8.0,11.0,58,0.00,,,0.00,meteohub,2013-05-31 03:52:00,
2013-05-30 22:57:00,80.1,63.0,28.14,East,90,13.0,13.0,56,0.00,,,0.00,meteohub,2013-05-31 03:57:00,
2013-05-30 23:01:00,79.9,62.8,28.14,East,90,8.0,13.0,56,0.00,,,0.00,meteohub,2013-05-31 04:01:00,
2013-05-30 23:02:00,80.4,63.9,28.14,NE,45,12.0,13.0,57,0.00,,,0.00,meteohub,2013-05-31 04:02:00,
2013-05-30 23:07:00,80.4,64.8,28.14,East,90,2.0,13.0,59,0.00,,,0.00,meteohub,2013-05-31 04:07:00,
2013-05-30 23:12:00,80.6,65.8,28.14,East,90,8.0,13.0,61,0.00,,,0.00,meteohub,2013-05-31 04:12:00,
2013-05-30 23:17:00,81.0,66.7,28.14,East,90,10.0,12.0,62,0.00,,,0.00,meteohub,2013-05-31 04:17:00,
2013-05-30 23:22:00,81.3,67.1,28.14,East,90,9.0,11.0,62,0.00,,,0.00,meteohub,2013-05-31 04:22:00,
2013-05-30 23:27:00,81.3,68.0,28.14,East,90,8.0,11.0,64,0.00,,,0.00,meteohub,2013-05-31 04:27:00,
2013-05-30 23:32:00,81.5,68.2,28.14,SSE,158,9.0,10.0,64,0.00,,,0.00,meteohub,2013-05-31 04:32:00,
2013-05-30 23:37:00,81.7,68.7,28.14,East,90,8.0,11.0,65,0.00,,,0.00,meteohub,2013-05-31 04:37:00,
2013-05-30 23:42:00,81.5,69.1,28.14,East,90,9.0,11.0,66,0.00,,,0.00,meteohub,2013-05-31 04:42:00,
2013-05-30 23:47:00,81.7,69.3,28.14,NW,315,13.0,13.0,66,0.00,,,0.00,meteohub,2013-05-31 04:47:00,
2013-05-30 23:52:00,82.0,69.6,28.14,SE,135,11.0,15.0,66,0.00,,,0.00,meteohub,2013-05-31 04:52:00,
2013-05-30 23:58:00,82.0,69.6,28.14,SE,135,11.0,15.0,66,0.00,,,0.00,meteohub,2013-05-31 04:58:00,